Time;durP1;ratioP1;P1;durP2;ratioP2;P2;SDS_P1;SDS_P2;PMS_P1;PMS_P2;Temp;Humidity;BMP_temperature;BMP_pressure;BME280_temperature;BME280_humidity;BME280_pressure;Samples;Min_cycle;Max_cycle;Signal;HPM_P1;HPM_P2
2024/03/10 00:01:03;;;;;;;47.97;24.30;;;;;;;;;;5062017;28;20067;-79
2024/03/10 00:03:29;;;;;;;52.22;24.30;;;;;;;;;;5067988;28;20031;-78
2024/03/10 00:05:56;;;;;;;47.78;25.95;;;;;;;;;;5060542;28;20493;-78
2024/03/10 00:08:22;;;;;;;45.90;23.63;;;;;;;;;;5062437;28;20115;-79
2024/03/10 00:10:48;;;;;;;47.97;25.10;;;;;;;;;;5065388;28;20033;-80
2024/03/10 00:13:14;;;;;;;48.47;25.40;;;;;;;;;;5058346;28;20029;-80
2024/03/10 00:15:40;;;;;;;51.58;25.55;;;;;;;;;;5059789;28;20020;-80
2024/03/10 00:18:06;;;;;;;46.63;23.77;;;;;;;;;;5055106;28;20384;-79
2024/03/10 00:20:33;;;;;;;47.97;24.90;;;;;;;;;;5064132;28;20056;-77
2024/03/10 00:22:59;;;;;;;50.90;26.33;;;;;;;;;;5062834;28;20066;-77
2024/03/10 00:25:26;;;;;;;44.17;25.30;;;;;;;;;;5058791;28;20417;-77
2024/03/10 00:27:52;;;;;;;46.53;24.95;;;;;;;;;;5062525;28;20386;-77
2024/03/10 00:30:18;;;;;;;51.33;24.92;;;;;;;;;;5059734;28;20090;-78
2024/03/10 00:32:45;;;;;;;44.22;23.35;;;;;;;;;;5061317;28;20465;-79
2024/03/10 00:35:11;;;;;;;55.28;26.58;;;;;;;;;;5054389;28;20490;-78
2024/03/10 00:37:38;;;;;;;52.17;23.88;;;;;;;;;;5054882;28;20017;-80
2024/03/10 00:40:05;;;;;;;47.78;24.10;;;;;;;;;;5056790;28;20458;-78
2024/03/10 00:42:31;;;;;;;48.80;23.85;;;;;;;;;;5056480;28;20036;-78
2024/03/10 00:44:57;;;;;;;47.47;25.48;;;;;;;;;;5069522;28;20035;-78
2024/03/10 00:47:23;;;;;;;52.28;26.70;;;;;;;;;;5066034;28;20021;-80
2024/03/10 00:49:50;;;;;;;47.63;25.77;;;;;;;;;;5053135;28;20029;-80
2024/03/10 00:52:16;;;;;;;51.80;26.55;;;;;;;;;;5052816;28;20544;-79
2024/03/10 00:54:42;;;;;;;51.88;26.17;;;;;;;;;;5052715;28;20025;-79
2024/03/10 00:57:08;;;;;;;49.15;25.30;;;;;;;;;;5053798;28;20111;-76
2024/03/10 00:59:34;;;;;;;50.33;25.00;;;;;;;;;;5061685;28;20059;-80
2024/03/10 01:02:00;;;;;;;57.40;27.63;;;;;;;;;;5065326;28;20028;-77
2024/03/10 01:04:27;;;;;;;51.05;25.55;;;;;;;;;;5061854;28;20415;-79
2024/03/10 01:06:53;;;;;;;52.00;27.90;;;;;;;;;;5056378;28;20386;-77
2024/03/10 01:09:19;;;;;;;52.40;26.73;;;;;;;;;;5072249;28;20020;-76
2024/03/10 01:11:47;;;;;;;50.30;24.02;;;;;;;;;;5069232;28;20585;-80
2024/03/10 01:14:13;;;;;;;45.20;23.58;;;;;;;;;;5071082;28;20033;-80
2024/03/10 01:16:40;;;;;;;51.80;25.17;;;;;;;;;;5065179;28;20447;-76
2024/03/10 01:19:09;;;;;;;45.90;25.15;;;;;;;;;;5060739;28;20021;-79
2024/03/10 01:21:35;;;;;;;43.65;22.52;;;;;;;;;;5065484;28;20151;-76
2024/03/10 01:24:01;;;;;;;43.97;23.65;;;;;;;;;;5052956;28;20060;-76
2024/03/10 01:26:27;;;;;;;48.97;24.05;;;;;;;;;;5051772;28;20505;-79
2024/03/10 01:28:53;;;;;;;53.65;25.35;;;;;;;;;;5052218;28;20017;-80
2024/03/10 01:31:19;;;;;;;48.97;26.27;;;;;;;;;;5053266;28;20478;-79
2024/03/10 01:33:45;;;;;;;45.88;26.05;;;;;;;;;;5058718;28;20025;-77
2024/03/10 01:36:11;;;;;;;44.17;24.10;;;;;;;;;;5053921;28;20021;-79
2024/03/10 01:38:37;;;;;;;48.70;26.58;;;;;;;;;;5057474;28;20389;-77
2024/03/10 01:41:03;;;;;;;46.15;24.65;;;;;;;;;;5062247;28;20033;-77
2024/03/10 01:43:29;;;;;;;48.00;24.42;;;;;;;;;;5065647;28;20084;-79
2024/03/10 01:46:06;;;;;;;42.70;23.80;;;;;;;;;;5064983;28;20020;-80
2024/03/10 01:48:33;;;;;;;50.30;24.77;;;;;;;;;;5068680;28;20535;-80
2024/03/10 01:51:00;;;;;;;44.13;23.38;;;;;;;;;;5067716;28;20041;-77
2024/03/10 01:53:30;;;;;;;45.90;23.85;;;;;;;;;;5058019;28;20024;-77
2024/03/10 01:55:56;;;;;;;43.80;23.70;;;;;;;;;;5071221;28;20021;-77
2024/03/10 01:58:23;;;;;;;46.95;23.65;;;;;;;;;;5071788;28;20057;-77
2024/03/10 02:00:52;;;;;;;39.75;21.90;;;;;;;;;;5072008;28;20493;-78
2024/03/10 02:03:18;;;;;;;42.70;22.98;;;;;;;;;;5053956;28;20466;-80
2024/03/10 02:05:46;;;;;;;47.72;23.67;;;;;;;;;;5064923;28;20068;-77
2024/03/10 02:08:14;;;;;;;41.38;22.80;;;;;;;;;;5059959;28;20040;-80
2024/03/10 02:10:41;;;;;;;46.97;22.90;;;;;;;;;;5058648;28;20042;-77
2024/03/10 02:13:07;;;;;;;44.65;22.88;;;;;;;;;;5058858;28;20032;-80
2024/03/10 02:15:33;;;;;;;47.55;23.33;;;;;;;;;;5058881;28;20103;-77
2024/03/10 02:17:59;;;;;;;44.60;21.42;;;;;;;;;;5058485;28;20025;-80
2024/03/10 02:20:26;;;;;;;49.05;22.50;;;;;;;;;;5052747;28;20486;-77
2024/03/10 02:22:52;;;;;;;44.28;23.90;;;;;;;;;;5059823;28;20012;-80
2024/03/10 02:25:22;;;;;;;41.95;22.92;;;;;;;;;;5058225;28;20029;-80
2024/03/10 02:27:50;;;;;;;48.50;22.52;;;;;;;;;;5052081;28;20021;-77
2024/03/10 02:30:19;;;;;;;47.05;24.88;;;;;;;;;;5055414;28;20501;-80
2024/03/10 02:49:15;;;;;;;53.08;25.60;;;;;;;;;;5065339;28;20039;-80
2024/03/10 02:51:42;;;;;;;48.10;25.48;;;;;;;;;;5062570;28;20120;-78
2024/03/10 02:54:08;;;;;;;55.42;25.30;;;;;;;;;;5062666;28;20021;-79
2024/03/10 02:56:34;;;;;;;47.35;25.83;;;;;;;;;;5059717;28;20025;-77
2024/03/10 02:59:00;;;;;;;51.05;25.85;;;;;;;;;;5058443;28;20032;-78
2024/03/10 03:01:26;;;;;;;48.17;24.38;;;;;;;;;;5057171;28;20422;-76
2024/03/10 03:03:52;;;;;;;47.58;24.60;;;;;;;;;;5060219;28;20041;-76
2024/03/10 03:06:18;;;;;;;52.67;26.35;;;;;;;;;;5059991;28;20458;-79
2024/03/10 03:08:44;;;;;;;50.20;23.70;;;;;;;;;;5063555;28;20040;-77
2024/03/10 03:11:10;;;;;;;48.03;26.05;;;;;;;;;;5064610;28;20064;-79
2024/03/10 03:13:37;;;;;;;49.70;25.55;;;;;;;;;;5054157;28;20021;-76
2024/03/10 03:16:04;;;;;;;52.58;25.45;;;;;;;;;;5056577;28;20478;-79
2024/03/10 03:18:30;;;;;;;47.05;24.67;;;;;;;;;;5056175;28;20112;-77
2024/03/10 03:20:56;;;;;;;47.53;26.17;;;;;;;;;;5055160;28;20025;-77
2024/03/10 03:23:22;;;;;;;45.13;23.27;;;;;;;;;;5059564;28;20025;-77
2024/03/10 03:25:49;;;;;;;44.17;24.50;;;;;;;;;;5058557;28;20028;-76
2024/03/10 03:28:17;;;;;;;49.45;27.42;;;;;;;;;;5060966;28;20021;-77
2024/03/10 03:30:45;;;;;;;48.65;25.70;;;;;;;;;;5057621;28;20112;-80
2024/03/10 03:33:12;;;;;;;50.67;26.90;;;;;;;;;;5061101;28;20415;-77
2024/03/10 03:35:38;;;;;;;49.08;25.15;;;;;;;;;;5069265;28;20024;-76
2024/03/10 03:38:05;;;;;;;51.90;25.15;;;;;;;;;;5057001;28;20032;-80
2024/03/10 03:40:31;;;;;;;51.13;24.63;;;;;;;;;;5061435;28;20414;-79
2024/03/10 03:42:57;;;;;;;43.72;24.00;;;;;;;;;;5066936;28;20044;-76
2024/03/10 03:45:23;;;;;;;50.42;24.45;;;;;;;;;;5066759;28;20032;-80
2024/03/10 03:47:49;;;;;;;47.22;24.17;;;;;;;;;;5058006;28;20402;-79
2024/03/10 03:50:15;;;;;;;49.70;25.73;;;;;;;;;;5056766;28;20071;-76
2024/03/10 03:52:41;;;;;;;52.55;25.65;;;;;;;;;;5056042;28;20028;-79
2024/03/10 03:55:08;;;;;;;47.33;23.73;;;;;;;;;;5054598;28;20029;-80
2024/03/10 03:57:34;;;;;;;49.33;26.05;;;;;;;;;;5062630;28;20355;-76
2024/03/10 04:00:01;;;;;;;55.92;25.20;;;;;;;;;;5062143;28;20096;-79
2024/03/10 04:02:27;;;;;;;43.42;24.33;;;;;;;;;;5059766;28;20429;-79
2024/03/10 04:04:53;;;;;;;48.15;23.30;;;;;;;;;;5060802;28;20017;-76
2024/03/10 04:07:20;;;;;;;51.92;25.23;;;;;;;;;;5057506;28;20028;-78
2024/03/10 04:09:46;;;;;;;47.30;23.92;;;;;;;;;;5057415;28;20470;-79
2024/03/10 04:12:12;;;;;;;46.47;23.08;;;;;;;;;;5059172;28;20039;-76
2024/03/10 04:14:38;;;;;;;43.85;22.83;;;;;;;;;;5063765;28;20020;-77
2024/03/10 04:17:04;;;;;;;45.85;22.05;;;;;;;;;;5055905;28;20371;-78
2024/03/10 04:19:30;;;;;;;43.03;21.77;;;;;;;;;;5061721;28;20036;-77
2024/03/10 04:21:56;;;;;;;42.40;21.40;;;;;;;;;;5068150;28;20021;-78
2024/03/10 04:24:22;;;;;;;42.42;21.67;;;;;;;;;;5063560;28;20027;-77
2024/03/10 04:26:48;;;;;;;40.83;20.40;;;;;;;;;;5040873;28;20021;-77
2024/03/10 04:29:14;;;;;;;42.38;22.00;;;;;;;;;;5055529;28;20074;-79
2024/03/10 04:31:40;;;;;;;40.92;21.50;;;;;;;;;;5043512;28;20040;-79
2024/03/10 04:34:07;;;;;;;44.28;22.38;;;;;;;;;;5056228;28;20021;-79
2024/03/10 04:36:33;;;;;;;49.10;22.92;;;;;;;;;;5055060;28;20021;-79
2024/03/10 04:38:59;;;;;;;42.85;21.63;;;;;;;;;;5053892;28;20021;-77
2024/03/10 04:41:25;;;;;;;43.03;22.85;;;;;;;;;;5053013;28;20398;-80
2024/03/10 04:43:52;;;;;;;43.33;21.52;;;;;;;;;;5053595;28;20049;-80
2024/03/10 04:46:19;;;;;;;47.97;23.52;;;;;;;;;;5055676;28;20029;-77
2024/03/10 04:48:47;;;;;;;41.85;20.95;;;;;;;;;;5070821;28;21067;-79
2024/03/10 04:51:15;;;;;;;42.33;21.00;;;;;;;;;;5058071;28;20101;-77
2024/03/10 04:53:42;;;;;;;34.95;20.45;;;;;;;;;;5055950;28;20052;-79
2024/03/10 04:56:12;;;;;;;39.58;19.75;;;;;;;;;;5055485;28;20035;-79
2024/03/10 04:58:38;;;;;;;36.28;19.63;;;;;;;;;;5057400;28;20017;-80
2024/03/10 05:01:04;;;;;;;39.70;20.08;;;;;;;;;;5055282;28;20088;-77
2024/03/10 05:03:30;;;;;;;35.13;19.90;;;;;;;;;;5055178;28;20170;-79
2024/03/10 05:05:56;;;;;;;35.78;20.50;;;;;;;;;;5062568;28;20014;-77
2024/03/10 05:08:23;;;;;;;35.17;18.42;;;;;;;;;;5060974;28;20386;-76
2024/03/10 05:10:49;;;;;;;37.67;18.27;;;;;;;;;;5057013;28;20143;-78
2024/03/10 05:13:16;;;;;;;37.90;19.38;;;;;;;;;;5062373;28;20031;-76
2024/03/10 05:15:42;;;;;;;39.40;20.35;;;;;;;;;;5063604;28;20017;-78
2024/03/10 05:18:08;;;;;;;37.50;18.42;;;;;;;;;;5060003;28;20029;-79
2024/03/10 05:20:35;;;;;;;33.88;19.13;;;;;;;;;;5057466;28;20056;-80
2024/03/10 05:23:01;;;;;;;38.55;20.38;;;;;;;;;;5068360;28;20043;-76
2024/03/10 05:25:29;;;;;;;36.17;19.83;;;;;;;;;;5056296;28;20079;-76
2024/03/10 05:27:55;;;;;;;39.35;19.08;;;;;;;;;;5061713;28;20095;-80
2024/03/10 05:30:21;;;;;;;41.22;20.50;;;;;;;;;;5053129;28;20391;-79
2024/03/10 05:32:49;;;;;;;38.40;20.60;;;;;;;;;;5050949;28;20028;-79
2024/03/10 05:35:15;;;;;;;33.42;19.92;;;;;;;;;;5059435;28;20021;-78
2024/03/10 05:37:44;;;;;;;36.53;19.45;;;;;;;;;;5049334;28;20074;-79
2024/03/10 05:40:10;;;;;;;37.22;20.08;;;;;;;;;;5059052;28;20390;-79
2024/03/10 05:42:36;;;;;;;42.67;20.63;;;;;;;;;;5059250;28;20429;-79
2024/03/10 05:45:03;;;;;;;35.80;20.10;;;;;;;;;;5060718;28;20029;-80
2024/03/10 05:47:29;;;;;;;39.28;19.55;;;;;;;;;;5057762;28;20367;-79
2024/03/10 05:49:56;;;;;;;38.47;20.42;;;;;;;;;;5072703;28;20036;-76
2024/03/10 05:52:22;;;;;;;39.13;20.33;;;;;;;;;;5055451;28;20074;-77
2024/03/10 05:54:48;;;;;;;43.50;20.88;;;;;;;;;;5053183;28;20025;-77
2024/03/10 05:57:14;;;;;;;35.85;18.80;;;;;;;;;;5052882;28;20021;-77
2024/03/10 05:59:44;;;;;;;37.63;20.38;;;;;;;;;;5051624;28;20114;-79
2024/03/10 06:02:13;;;;;;;34.35;17.95;;;;;;;;;;5048776;28;20410;-79
2024/03/10 06:04:39;;;;;;;34.35;19.13;;;;;;;;;;5059176;28;20035;-77
2024/03/10 06:07:06;;;;;;;34.88;18.50;;;;;;;;;;5055771;28;20116;-77
2024/03/10 06:09:34;;;;;;;34.25;18.17;;;;;;;;;;5058295;28;20029;-77
2024/03/10 06:12:00;;;;;;;35.05;18.45;;;;;;;;;;5056088;28;20028;-79
2024/03/10 06:14:26;;;;;;;32.50;18.23;;;;;;;;;;5043717;28;20025;-79
2024/03/10 06:16:52;;;;;;;31.77;17.90;;;;;;;;;;5035763;28;20071;-79
2024/03/10 06:27:33;;;;;;;33.30;16.98;;;;;;;;;;5054888;28;20023;-80
2024/03/10 06:29:59;;;;;;;32.55;18.85;;;;;;;;;;5069343;28;20025;-80
2024/03/10 06:32:25;;;;;;;31.10;18.08;;;;;;;;;;5062628;28;20037;-79
2024/03/10 06:34:51;;;;;;;33.70;19.38;;;;;;;;;;5045497;28;20017;-79
2024/03/10 06:37:19;;;;;;;33.83;17.83;;;;;;;;;;5048229;28;20033;-79
2024/03/10 06:39:46;;;;;;;36.53;19.23;;;;;;;;;;5049471;28;20048;-80
2024/03/10 06:42:32;;;;;;;36.15;19.63;;;;;;;;;;5043550;28;20032;-81
2024/03/10 06:44:58;;;;;;;32.85;17.27;;;;;;;;;;5040762;28;20033;-80
2024/03/10 06:47:24;;;;;;;35.63;18.70;;;;;;;;;;5039960;28;20026;-79
2024/03/10 06:49:50;;;;;;;33.80;18.33;;;;;;;;;;5036690;28;20024;-80
2024/03/10 06:52:17;;;;;;;37.47;20.08;;;;;;;;;;5046448;28;20041;-79
2024/03/10 06:54:44;;;;;;;33.30;17.88;;;;;;;;;;5036531;28;20030;-79
2024/03/10 06:57:10;;;;;;;34.28;17.23;;;;;;;;;;5038964;28;20557;-80
2024/03/10 06:59:36;;;;;;;37.03;18.77;;;;;;;;;;5070242;28;20031;-79
2024/03/10 07:02:02;;;;;;;35.08;18.52;;;;;;;;;;5067080;28;20024;-79
2024/03/10 07:04:28;;;;;;;33.78;17.38;;;;;;;;;;5051655;28;20148;-80
2024/03/10 07:06:55;;;;;;;31.45;18.50;;;;;;;;;;5041460;28;20482;-80
2024/03/10 07:09:25;;;;;;;34.72;18.27;;;;;;;;;;5048279;28;20038;-80
2024/03/10 07:11:53;;;;;;;39.45;20.50;;;;;;;;;;5056861;28;20049;-80
2024/03/10 07:14:19;;;;;;;36.70;18.67;;;;;;;;;;5061896;28;20035;-79
2024/03/10 07:16:53;;;;;;;31.27;18.45;;;;;;;;;;5040573;28;20107;-79
2024/03/10 07:19:19;;;;;;;32.78;17.17;;;;;;;;;;5061679;28;20359;-80
2024/03/10 07:21:45;;;;;;;30.30;16.67;;;;;;;;;;5066924;28;20123;-80
2024/03/10 07:24:11;;;;;;;32.08;17.95;;;;;;;;;;5037232;28;20426;-80
2024/03/10 07:26:37;;;;;;;32.13;18.20;;;;;;;;;;5051710;28;20024;-80
2024/03/10 07:29:03;;;;;;;30.77;17.67;;;;;;;;;;5052982;28;20021;-79
2024/03/10 07:31:29;;;;;;;28.58;15.63;;;;;;;;;;5061190;28;20075;-80
2024/03/10 07:33:56;;;;;;;26.50;15.63;;;;;;;;;;5068467;28;20060;-80
2024/03/10 07:36:22;;;;;;;24.92;14.55;;;;;;;;;;5065679;28;20410;-80
2024/03/10 07:38:50;;;;;;;27.30;14.70;;;;;;;;;;5062965;28;20053;-80
2024/03/10 07:41:16;;;;;;;29.83;14.95;;;;;;;;;;5062666;28;20171;-80
2024/03/10 07:43:43;;;;;;;25.73;14.13;;;;;;;;;;5059830;28;20406;-80
2024/03/10 07:46:09;;;;;;;25.17;14.85;;;;;;;;;;5066957;28;20523;-80
2024/03/10 07:48:35;;;;;;;22.98;14.38;;;;;;;;;;5069136;28;20363;-81
2024/03/10 07:51:03;;;;;;;23.45;14.20;;;;;;;;;;5069347;28;20029;-80
2024/03/10 07:53:29;;;;;;;21.23;12.57;;;;;;;;;;5048010;28;20078;-80
2024/03/10 07:55:56;;;;;;;23.90;14.18;;;;;;;;;;5058908;28;20033;-80
2024/03/10 07:58:22;;;;;;;24.35;14.05;;;;;;;;;;5065103;28;20032;-80
2024/03/10 08:00:48;;;;;;;22.10;13.70;;;;;;;;;;5068264;28;20025;-80
2024/03/10 08:03:15;;;;;;;20.92;12.60;;;;;;;;;;5064160;28;20071;-80
2024/03/10 08:05:41;;;;;;;22.95;12.57;;;;;;;;;;5049783;28;20116;-80
2024/03/10 08:08:08;;;;;;;23.40;12.45;;;;;;;;;;5057479;28;20012;-80
2024/03/10 08:10:34;;;;;;;20.10;11.70;;;;;;;;;;5071116;28;20566;-81
2024/03/10 08:13:01;;;;;;;23.65;11.25;;;;;;;;;;5071515;28;20029;-80
2024/03/10 08:15:27;;;;;;;25.52;13.07;;;;;;;;;;5071338;28;20111;-80
2024/03/10 08:17:53;;;;;;;25.40;12.57;;;;;;;;;;5070604;28;20021;-80
2024/03/10 08:20:19;;;;;;;22.40;12.40;;;;;;;;;;5066675;28;20112;-80
2024/03/10 08:22:45;;;;;;;19.90;10.73;;;;;;;;;;5073135;28;20056;-81
2024/03/10 08:25:12;;;;;;;22.92;12.35;;;;;;;;;;5067448;28;20082;-81
2024/03/10 08:27:38;;;;;;;19.08;11.93;;;;;;;;;;5064341;28;20378;-81
2024/03/10 08:30:09;;;;;;;19.23;12.07;;;;;;;;;;5070600;28;20020;-79
2024/03/10 08:32:36;;;;;;;31.80;16.40;;;;;;;;;;5069792;28;20033;-80
2024/03/10 08:35:04;;;;;;;23.17;13.07;;;;;;;;;;5058716;28;20024;-79
2024/03/10 08:37:30;;;;;;;20.65;13.05;;;;;;;;;;5069754;28;20020;-80
2024/03/10 08:39:56;;;;;;;18.45;11.60;;;;;;;;;;5057534;28;20025;-80
2024/03/10 08:42:24;;;;;;;15.52;10.25;;;;;;;;;;5050237;28;20036;-81
2024/03/10 08:44:51;;;;;;;19.23;11.88;;;;;;;;;;5055037;28;20056;-81
2024/03/10 08:47:17;;;;;;;19.65;11.43;;;;;;;;;;5067092;28;20024;-80
2024/03/10 08:49:43;;;;;;;19.35;11.40;;;;;;;;;;5055485;28;20056;-81
2024/03/10 08:52:12;;;;;;;20.67;12.43;;;;;;;;;;5060968;28;20604;-81
2024/03/10 08:54:38;;;;;;;19.95;11.93;;;;;;;;;;5063251;28;20027;-81
2024/03/10 08:57:04;;;;;;;19.38;10.98;;;;;;;;;;5061669;28;20032;-81
2024/03/10 08:59:31;;;;;;;17.48;11.60;;;;;;;;;;5057470;28;20528;-81
2024/03/10 09:01:57;;;;;;;21.80;12.20;;;;;;;;;;5063546;28;20493;-81
2024/03/10 09:04:23;;;;;;;20.67;11.65;;;;;;;;;;5071593;28;20035;-81
2024/03/10 09:06:50;;;;;;;18.42;12.00;;;;;;;;;;5064137;28;20021;-80
2024/03/10 09:09:18;;;;;;;20.17;12.05;;;;;;;;;;5059493;28;20024;-80
2024/03/10 09:11:44;;;;;;;24.60;14.57;;;;;;;;;;5063255;28;20130;-80
2024/03/10 09:14:11;;;;;;;18.67;12.02;;;;;;;;;;5067363;28;20482;-80
2024/03/10 09:16:37;;;;;;;21.23;12.27;;;;;;;;;;5067254;28;20029;-80
2024/03/10 09:19:05;;;;;;;21.90;12.70;;;;;;;;;;5066848;28;20028;-80
2024/03/10 09:21:35;;;;;;;20.98;13.32;;;;;;;;;;5064822;28;20033;-80
2024/03/10 09:24:01;;;;;;;18.02;12.23;;;;;;;;;;5061513;28;20032;-80
2024/03/10 09:26:28;;;;;;;21.48;12.32;;;;;;;;;;5048506;28;20043;-79
2024/03/10 09:28:55;;;;;;;21.30;12.10;;;;;;;;;;5050550;28;20021;-80
2024/03/10 09:31:23;;;;;;;20.02;12.50;;;;;;;;;;5056201;28;20045;-81
2024/03/10 09:33:49;;;;;;;20.65;12.45;;;;;;;;;;5053659;28;20028;-80
2024/03/10 09:36:16;;;;;;;15.95;11.65;;;;;;;;;;5058648;28;20397;-80
2024/03/10 09:38:44;;;;;;;21.30;11.05;;;;;;;;;;5048599;28;20104;-80
2024/03/10 09:41:11;;;;;;;15.50;10.93;;;;;;;;;;5058759;28;20494;-80
2024/03/10 09:43:38;;;;;;;17.88;10.82;;;;;;;;;;5040897;28;20132;-80
2024/03/10 09:46:05;;;;;;;18.50;10.40;;;;;;;;;;5054072;28;20465;-79
2024/03/10 09:48:32;;;;;;;13.40;8.57;;;;;;;;;;5048514;28;20032;-80
2024/03/10 09:50:58;;;;;;;13.65;8.98;;;;;;;;;;5060237;28;20078;-77
2024/03/10 09:53:26;;;;;;;17.77;11.18;;;;;;;;;;5055124;28;20037;-77
2024/03/10 09:55:52;;;;;;;17.02;10.45;;;;;;;;;;5062835;28;20012;-77
2024/03/10 09:58:22;;;;;;;19.35;11.48;;;;;;;;;;5052044;28;20103;-77
2024/03/10 10:00:50;;;;;;;17.90;11.02;;;;;;;;;;5068638;28;20031;-77
2024/03/10 10:03:18;;;;;;;18.35;11.18;;;;;;;;;;5062122;28;20024;-76
2024/03/10 10:05:45;;;;;;;20.63;12.25;;;;;;;;;;5065184;28;20484;-76
2024/03/10 10:08:12;;;;;;;22.98;13.85;;;;;;;;;;5064401;28;20121;-76
2024/03/10 10:10:42;;;;;;;19.30;12.88;;;;;;;;;;5048964;28;20114;-77
2024/03/10 10:13:08;;;;;;;20.52;12.73;;;;;;;;;;5059134;28;20017;-78
2024/03/10 10:15:35;;;;;;;20.50;13.63;;;;;;;;;;5061267;28;20075;-77
2024/03/10 10:18:02;;;;;;;20.38;11.68;;;;;;;;;;5051252;28;20033;-78
2024/03/10 10:20:28;;;;;;;22.05;12.45;;;;;;;;;;5036731;28;20031;-78
2024/03/10 10:23:00;;;;;;;20.42;12.95;;;;;;;;;;5038296;28;20026;-77
2024/03/10 10:25:27;;;;;;;18.55;11.40;;;;;;;;;;5047897;28;20025;-78
2024/03/10 10:27:57;;;;;;;18.50;10.32;;;;;;;;;;5052033;28;20087;-78
2024/03/10 10:30:23;;;;;;;19.35;11.57;;;;;;;;;;5053222;28;20029;-78
2024/03/10 10:32:50;;;;;;;19.02;12.13;;;;;;;;;;5051311;28;20033;-77
2024/03/10 10:35:16;;;;;;;20.00;11.73;;;;;;;;;;5061386;28;20037;-77
2024/03/10 10:37:46;;;;;;;22.48;13.88;;;;;;;;;;5054200;28;20033;-76
2024/03/10 10:40:12;;;;;;;18.75;12.18;;;;;;;;;;5049355;28;20017;-76
2024/03/10 10:42:38;;;;;;;19.38;12.50;;;;;;;;;;5061665;28;20077;-78
2024/03/10 10:45:08;;;;;;;20.75;12.45;;;;;;;;;;5060832;28;20020;-78
2024/03/10 10:47:34;;;;;;;21.13;13.65;;;;;;;;;;5046356;28;20056;-78
2024/03/10 10:50:00;;;;;;;25.58;13.45;;;;;;;;;;5041662;28;20022;-80
2024/03/10 10:52:27;;;;;;;20.08;11.80;;;;;;;;;;5049900;28;20037;-78
2024/03/10 10:54:53;;;;;;;16.75;11.07;;;;;;;;;;5045287;28;20018;-80
2024/03/10 10:57:19;;;;;;;18.63;12.13;;;;;;;;;;5056409;28;20055;-79
2024/03/10 10:59:48;;;;;;;18.13;11.52;;;;;;;;;;5037742;28;20120;-78
2024/03/10 11:02:19;;;;;;;21.55;12.82;;;;;;;;;;5051951;28;20021;-78
2024/03/10 11:04:45;;;;;;;20.33;11.63;;;;;;;;;;5057965;28;20433;-77
2024/03/10 11:07:13;;;;;;;21.20;12.70;;;;;;;;;;5060774;28;20027;-77
2024/03/10 11:09:40;;;;;;;18.92;11.70;;;;;;;;;;5057117;28;20031;-79
2024/03/10 11:12:21;;;;;;;17.92;11.57;;;;;;;;;;5062722;28;20031;-78
2024/03/10 11:14:51;;;;;;;17.25;11.52;;;;;;;;;;5062297;28;20501;-77
2024/03/10 11:17:19;;;;;;;19.08;12.70;;;;;;;;;;5044684;28;20075;-78
2024/03/10 11:19:58;;;;;;;21.00;12.80;;;;;;;;;;5051793;28;20024;-78
2024/03/10 11:22:30;;;;;;;22.20;13.95;;;;;;;;;;5048915;28;20083;-78
2024/03/10 11:25:27;;;;;;;22.60;12.80;;;;;;;;;;5057717;28;20029;-78
2024/03/10 11:27:53;;;;;;;19.98;12.07;;;;;;;;;;5052337;28;20044;-78
2024/03/10 11:30:40;;;;;;;21.25;13.10;;;;;;;;;;5050406;28;20067;-78
2024/03/10 11:33:11;;;;;;;24.52;14.05;;;;;;;;;;5056224;28;20055;-76
2024/03/10 11:35:37;;;;;;;26.77;14.18;;;;;;;;;;5051894;28;20029;-79
2024/03/10 11:38:09;;;;;;;24.25;14.07;;;;;;;;;;5057457;28;20028;-78
2024/03/10 11:40:36;;;;;;;26.13;13.90;;;;;;;;;;5062402;28;20052;-79
2024/03/10 11:43:03;;;;;;;22.20;13.75;;;;;;;;;;5064497;28;20037;-79
2024/03/10 11:45:29;;;;;;;21.98;13.10;;;;;;;;;;5065905;28;20039;-78
2024/03/10 11:47:58;;;;;;;19.67;13.05;;;;;;;;;;5066439;28;20362;-80
2024/03/10 11:50:31;;;;;;;25.13;14.15;;;;;;;;;;5044517;28;20064;-76
2024/03/10 11:52:57;;;;;;;21.67;13.43;;;;;;;;;;5061318;28;20090;-76
2024/03/10 11:55:26;;;;;;;18.75;12.75;;;;;;;;;;5068626;28;20025;-76
2024/03/10 11:57:53;;;;;;;20.20;13.32;;;;;;;;;;5059728;28;20031;-76
2024/03/10 12:00:23;;;;;;;21.63;12.85;;;;;;;;;;5069363;28;20028;-76
2024/03/10 12:02:50;;;;;;;18.50;11.73;;;;;;;;;;5057683;28;20033;-79
2024/03/10 12:05:17;;;;;;;16.02;11.02;;;;;;;;;;5061351;28;20024;-79
2024/03/10 12:07:43;;;;;;;20.45;12.43;;;;;;;;;;5061269;28;20025;-77
2024/03/10 12:10:17;;;;;;;17.05;10.40;;;;;;;;;;5068447;28;20017;-78
2024/03/10 12:12:46;;;;;;;16.70;10.10;;;;;;;;;;5051028;28;20174;-78
2024/03/10 12:15:17;;;;;;;16.00;11.20;;;;;;;;;;5066420;28;20016;-77
2024/03/10 12:17:44;;;;;;;19.42;11.32;;;;;;;;;;5055902;28;20021;-78
2024/03/10 12:20:12;;;;;;;14.63;10.52;;;;;;;;;;5069370;28;20013;-78
2024/03/10 12:22:39;;;;;;;13.95;8.57;;;;;;;;;;5038262;28;20029;-79
2024/03/10 12:25:09;;;;;;;18.55;10.63;;;;;;;;;;5056329;28;20135;-79
2024/03/10 12:27:38;;;;;;;17.20;10.43;;;;;;;;;;5059513;28;20082;-79
2024/03/10 12:30:09;;;;;;;13.75;9.50;;;;;;;;;;5055937;28;20028;-79
2024/03/10 12:32:39;;;;;;;14.82;8.77;;;;;;;;;;5064150;28;20067;-78
2024/03/10 12:35:06;;;;;;;14.68;9.52;;;;;;;;;;5064349;28;20017;-77
2024/03/10 12:37:32;;;;;;;14.23;9.20;;;;;;;;;;5054744;28;20130;-77
2024/03/10 12:39:58;;;;;;;15.13;8.88;;;;;;;;;;5054656;28;20022;-76
2024/03/10 12:42:25;;;;;;;15.63;10.15;;;;;;;;;;5061661;28;20078;-76
2024/03/10 12:44:51;;;;;;;14.20;8.70;;;;;;;;;;5054417;28;20053;-77
2024/03/10 12:47:17;;;;;;;12.43;8.13;;;;;;;;;;5055641;28;20035;-77
2024/03/10 12:49:43;;;;;;;12.25;8.95;;;;;;;;;;5059939;28;20029;-78
2024/03/10 12:52:10;;;;;;;13.85;9.40;;;;;;;;;;5060612;28;20086;-78
2024/03/10 12:54:36;;;;;;;12.50;8.68;;;;;;;;;;5060806;28;20025;-79
2024/03/10 12:57:03;;;;;;;16.17;9.23;;;;;;;;;;5057489;28;20025;-79
2024/03/10 12:59:29;;;;;;;14.32;8.30;;;;;;;;;;5053774;28;20033;-79
2024/03/10 13:01:56;;;;;;;13.77;8.80;;;;;;;;;;5060642;28;20500;-78
2024/03/10 13:04:22;;;;;;;15.27;9.43;;;;;;;;;;5050820;28;20025;-78
2024/03/10 13:06:48;;;;;;;12.88;8.45;;;;;;;;;;5039498;28;20491;-78
2024/03/10 13:09:16;;;;;;;15.10;9.43;;;;;;;;;;5048341;28;20442;-78
2024/03/10 13:11:42;;;;;;;16.02;8.55;;;;;;;;;;5042951;28;20025;-78
2024/03/10 13:14:08;;;;;;;17.27;8.88;;;;;;;;;;5042093;28;20029;-78
2024/03/10 13:16:34;;;;;;;14.25;9.00;;;;;;;;;;5035365;28;20112;-78
2024/03/10 13:19:01;;;;;;;13.45;9.35;;;;;;;;;;5033046;28;20061;-77
2024/03/10 13:21:28;;;;;;;16.15;9.80;;;;;;;;;;5040190;28;20025;-78
2024/03/10 13:23:54;;;;;;;19.30;9.88;;;;;;;;;;5037874;28;20482;-77
2024/03/10 13:26:20;;;;;;;14.93;8.60;;;;;;;;;;5036034;28;20035;-77
2024/03/10 13:28:47;;;;;;;12.93;7.78;;;;;;;;;;5054723;28;20037;-76
2024/03/10 13:31:14;;;;;;;13.02;8.18;;;;;;;;;;5056345;28;20033;-79
2024/03/10 13:33:40;;;;;;;15.75;9.45;;;;;;;;;;5059047;28;20057;-77
2024/03/10 13:36:07;;;;;;;13.88;8.25;;;;;;;;;;5039620;28;20031;-77
2024/03/10 13:38:33;;;;;;;12.75;8.23;;;;;;;;;;5042326;28;20079;-77
2024/03/10 13:40:59;;;;;;;10.48;8.00;;;;;;;;;;5046651;28;20024;-76
2024/03/10 13:43:25;;;;;;;13.07;7.35;;;;;;;;;;5054945;28;20052;-77
2024/03/10 13:45:51;;;;;;;10.50;6.97;;;;;;;;;;5065964;28;20041;-77
2024/03/10 13:48:17;;;;;;;10.40;7.72;;;;;;;;;;5051537;28;20078;-77
2024/03/10 13:50:44;;;;;;;11.77;7.38;;;;;;;;;;5051541;28;20021;-79
2024/03/10 13:53:11;;;;;;;8.85;7.15;;;;;;;;;;5051944;28;20032;-78
2024/03/10 13:55:40;;;;;;;8.73;6.85;;;;;;;;;;5060734;28;20995;-79
2024/03/10 13:58:08;;;;;;;12.90;6.90;;;;;;;;;;5057760;28;20051;-79
2024/03/10 14:00:34;;;;;;;12.90;7.35;;;;;;;;;;5057009;28;20052;-79
2024/03/10 14:03:01;;;;;;;10.63;7.25;;;;;;;;;;5056525;28;20035;-79
2024/03/10 14:05:27;;;;;;;10.30;7.93;;;;;;;;;;5058424;28;20120;-77
2024/03/10 14:07:53;;;;;;;9.63;6.68;;;;;;;;;;5058305;28;20527;-78
2024/03/10 14:10:19;;;;;;;7.50;6.32;;;;;;;;;;5050273;28;20474;-78
2024/03/10 14:12:45;;;;;;;10.63;7.20;;;;;;;;;;5053769;28;20041;-79
2024/03/10 14:15:12;;;;;;;12.38;7.18;;;;;;;;;;5065681;28;20020;-78
2024/03/10 14:17:41;;;;;;;8.07;7.22;;;;;;;;;;5055123;28;20025;-78
2024/03/10 14:20:13;;;;;;;10.10;7.18;;;;;;;;;;5057599;28;20025;-78
2024/03/10 14:22:39;;;;;;;8.88;6.82;;;;;;;;;;5056980;28;20029;-79
2024/03/10 14:25:08;;;;;;;8.88;6.97;;;;;;;;;;5058564;28;20020;-79
2024/03/10 14:27:34;;;;;;;10.48;6.78;;;;;;;;;;5061420;28;20020;-79
2024/03/10 14:30:00;;;;;;;10.68;7.15;;;;;;;;;;5049655;28;20482;-80
2024/03/10 14:32:27;;;;;;;12.70;7.22;;;;;;;;;;5041729;28;20039;-78
2024/03/10 14:34:53;;;;;;;12.20;7.55;;;;;;;;;;5051756;28;20025;-80
2024/03/10 14:37:21;;;;;;;10.32;7.82;;;;;;;;;;5054423;28;20519;-78
2024/03/10 14:39:47;;;;;;;13.13;8.63;;;;;;;;;;5051738;28;20037;-79
2024/03/10 14:42:13;;;;;;;15.48;9.80;;;;;;;;;;5058755;28;20020;-78